Portada
METAR-TAF:

METAR-TAF

Aeropuertos :

Aeropuerto Civil de Amán

Amán, Jordania

latitud: 31-59N, longitud: 035-59E, altitud: 767 m

Observación

El informe se hizo hace 21 minutos, a las 04:00 UTC
Viento 4 kt del oeste-suroeste
Temperatura 24°C
Humedad 38%
Presión 1008 hPa
Visibilidad 10 km o más
sin nubes por debajo de 1500 m y sin presencia de cumulonimbus.

METAR: OJAM 300400Z 25004KT CAVOK 24/09 Q1008 NOSIG

Hora: 07:21 (04:21 UTC)

Pronóstico

El informe se hizo hace 6 horas y 17 minutos, a las 22:04 UTC
Pronóstico válido del 30 a las 00 UTC al 31 a las 06 UTC
Viento 8 kt del oeste
Visibilidad: 6000 m
Probabilidad 30% :
Temporalmente
del 30 a las 12 UTC al 30 a las 15 UTC
Viento 15 kt del oeste
Visibilidad: 4000 m
Ventisca alta de polvo

TAF: OJAM 292204Z 3000/3106 28008KT 6000 NSC PROB30 TEMPO 3012/3015 28015KT 4000 BLDU

Observaciones y pronósticos meteorológicos de más de 4000 aeropuertos (mensajes METAR y TAF).

Los puntos amarillos y rojos representan las estaciones disponibles.

Ponga el ratón en el punto deseado para ver el nombre de la estación.

Haga clic para ver las observaciones y los pronósticos meteorológicos.

Para cambiar el mapa : haga clic en los botones verdes con una cruz de color negro para hacer un zoom, en el botón verde con un guión para alejar o en las flechas verdes para mapas adyacentes.


METAR-TAF: